Rio Bravo, Texas
Current Conditions -  °F | °C
As of 8:15 PM on Sunday 25 Jan 2015 (Local Time) from KHBV Reporting Station
Clear Clear  
Wind Chill: 56°   Ceiling: Unl
Heat Index: 56°   Visibility: 10mi
Dew Point: 39°   Wind: 7mph
Humidity: 52%   Direction: 320°NW
Pressure: 30.2"   Gusts: NA
Location:  27.4721°N, 99.1091°W
Report Text: KHBV 260215Z AUTO 32006KT 10SM CLR 13/04 A3020 RMK AO2 T01340037
Loading
Personal Weather Stations






























Interactive Weather Map New forecast layout! Learn more

10-Day Weather Forecast

Advertisements
Track Severe Weather on mobile